Archival Weather

Chicago O'Hare International

Chicago, Illinois (KORD)

Report from: Wednesday, January 25, 2023 12:51 AM CST
Current time: Sunday, February 5, 2023 11:35 PM CST

Current weather
Weather history
Weather forecast

Temperature0.0°C (32.0°F)
Wind chill-2.5°C (27.5°F)
Dew point-2.8°C (27.0°F)
Winds 4 kts (2.1 m/s, 4.6 mph) East-Southeast (120°)
Visibility8 mi. (12.9 km)
Clouds Ceiling: Broken clouds 1,300 ft. (396 m)
Overcast 2,000 ft. (610 m)
Altimeter29.99 in.Hg (1016 mB)
Relative humidity81 %
Density altitude-1,836 ft. (-559 m)
Sea-level pressure101.6 kPa (1016 mB, 30.01 in.Hg)
Remarks Automated weather observing station with precipitation discriminator
Flight conditions Marginal Visual Meteorological Conditions
Raw dataKORD 250651Z 12004KT 8SM BKN013 OVC020 00/M03 A2999 RMK AO2 SLP162 T00001028
An error has occurred. This application may no longer respond until reloaded. Reload 🗙